createdAt,value
2018-06-10T00:01:22.962Z,19.80
2018-06-10T00:03:51.179Z,19.80
2018-06-10T00:06:19.397Z,19.90
2018-06-10T00:08:47.696Z,19.90
2018-06-10T00:11:15.947Z,19.90
2018-06-10T00:13:44.164Z,19.80
2018-06-10T00:16:12.366Z,19.70
2018-06-10T00:18:40.549Z,19.70
2018-06-10T00:21:08.730Z,19.60
2018-06-10T00:23:36.994Z,19.70
2018-06-10T00:26:05.229Z,19.70
2018-06-10T00:28:38.639Z,19.70
2018-06-10T00:31:06.960Z,19.70
2018-06-10T00:33:35.190Z,19.70
2018-06-10T00:36:03.491Z,19.70
2018-06-10T00:38:31.686Z,19.80
2018-06-10T00:40:59.976Z,19.70
2018-06-10T00:43:28.219Z,19.70
2018-06-10T00:45:56.550Z,19.60
2018-06-10T00:48:24.793Z,19.70
2018-06-10T00:50:52.955Z,19.60
2018-06-10T00:53:21.139Z,19.60
2018-06-10T00:55:49.379Z,19.60
2018-06-10T00:58:17.728Z,19.50
2018-06-10T01:00:46.005Z,19.40
2018-06-10T01:03:14.244Z,19.40
2018-06-10T01:05:42.517Z,19.40
2018-06-10T01:08:10.727Z,19.40
2018-06-10T01:10:39.058Z,19.40
2018-06-10T01:13:07.244Z,19.40
2018-06-10T01:15:35.378Z,19.50
2018-06-10T01:18:03.686Z,19.50
2018-06-10T01:20:32.164Z,19.50
2018-06-10T01:23:00.394Z,19.60
2018-06-10T01:25:28.613Z,19.60
2018-06-10T01:27:56.800Z,19.50
2018-06-10T01:30:25.044Z,19.60
2018-06-10T01:32:53.226Z,19.60
2018-06-10T01:35:21.875Z,19.60
2018-06-10T01:37:50.124Z,19.60
2018-06-10T01:40:18.281Z,19.60
2018-06-10T01:42:46.615Z,19.60
2018-06-10T01:45:14.842Z,19.60
2018-06-10T01:47:43.043Z,19.60
2018-06-10T01:50:11.274Z,19.60
2018-06-10T01:52:39.607Z,19.60
2018-06-10T01:55:07.878Z,19.60
2018-06-10T01:57:36.122Z,19.60
2018-06-10T02:00:04.522Z,19.60
2018-06-10T02:02:32.894Z,19.50
2018-06-10T02:05:01.086Z,19.60
2018-06-10T02:07:29.308Z,19.60
2018-06-10T02:09:57.515Z,19.60
2018-06-10T02:12:25.855Z,19.60
2018-06-10T02:14:54.101Z,19.60
2018-06-10T02:17:22.323Z,19.60
2018-06-10T02:19:50.586Z,19.70
2018-06-10T02:22:18.770Z,19.60
2018-06-10T02:27:14.658Z,19.60
2018-06-10T02:29:42.904Z,19.60
2018-06-10T02:32:11.154Z,19.60
2018-06-10T02:34:39.355Z,19.60
2018-06-10T02:37:07.643Z,19.60
2018-06-10T02:39:35.865Z,19.60
2018-06-10T02:42:04.126Z,19.60
2018-06-10T02:44:32.391Z,19.70
2018-06-10T02:47:00.627Z,19.70
2018-06-10T02:49:28.829Z,19.70
2018-06-10T02:51:57.073Z,19.70
2018-06-10T02:54:25.247Z,19.70
2018-06-10T02:56:53.508Z,19.70
2018-06-10T02:59:21.774Z,19.70
2018-06-10T03:01:49.987Z,19.70
2018-06-10T03:04:18.179Z,19.70
2018-06-10T03:06:46.363Z,19.70
2018-06-10T03:09:14.584Z,19.70
2018-06-10T03:11:42.831Z,19.60
2018-06-10T03:14:11.083Z,19.60
2018-06-10T03:16:39.313Z,19.50
2018-06-10T03:19:07.499Z,19.50
2018-06-10T03:21:35.723Z,19.60
2018-06-10T03:24:04.027Z,19.50
2018-06-10T03:26:32.325Z,19.50
2018-06-10T03:29:00.622Z,19.60
2018-06-10T03:31:28.856Z,19.60
2018-06-10T03:33:57.133Z,19.60
2018-06-10T03:36:25.398Z,19.60
2018-06-10T03:38:53.590Z,19.60
2018-06-10T03:41:21.879Z,19.60
2018-06-10T03:43:50.120Z,19.50
2018-06-10T03:46:18.337Z,19.50
2018-06-10T03:48:46.576Z,19.50
2018-06-10T03:51:14.858Z,19.40
2018-06-10T03:53:43.057Z,19.40
2018-06-10T03:56:11.275Z,19.30
2018-06-10T03:58:39.514Z,19.30
2018-06-10T04:01:07.823Z,19.40
2018-06-10T04:03:36.104Z,19.40
2018-06-10T04:06:04.429Z,19.40
2018-06-10T04:08:32.686Z,19.40
2018-06-10T04:11:00.890Z,19.30
2018-06-10T04:13:29.103Z,19.20
2018-06-10T04:15:57.275Z,19.00
2018-06-10T04:18:25.511Z,19.00
2018-06-10T04:20:53.753Z,19.10
2018-06-10T04:23:21.952Z,19.20
2018-06-10T04:25:50.175Z,19.30
2018-06-10T04:28:18.418Z,19.30
2018-06-10T04:30:46.679Z,19.40
2018-06-10T04:33:14.939Z,19.50
2018-06-10T04:35:43.149Z,19.40
2018-06-10T04:38:11.327Z,19.40
2018-06-10T04:40:39.627Z,19.50
2018-06-10T04:43:07.881Z,19.50
2018-06-10T04:45:36.116Z,19.50
2018-06-10T04:48:04.334Z,19.50
2018-06-10T04:50:32.512Z,19.60
2018-06-10T04:53:00.769Z,19.70
2018-06-10T04:55:29.046Z,19.70
2018-06-10T04:57:57.258Z,19.70
2018-06-10T05:00:25.555Z,19.80
2018-06-10T05:02:53.770Z,19.90
2018-06-10T05:05:22.154Z,19.90
2018-06-10T05:07:50.418Z,20.00
2018-06-10T05:10:18.630Z,20.00
2018-06-10T05:12:46.902Z,20.00
2018-06-10T05:15:15.058Z,20.00
2018-06-10T05:17:43.246Z,20.10
2018-06-10T05:20:11.480Z,20.20
2018-06-10T05:22:39.639Z,20.20
2018-06-10T05:25:07.924Z,20.30
2018-06-10T05:27:36.133Z,20.30
2018-06-10T05:30:04.517Z,20.20
2018-06-10T05:32:32.763Z,20.30
2018-06-10T05:35:00.951Z,20.40
2018-06-10T05:37:29.219Z,20.50
2018-06-10T05:39:57.418Z,20.50
2018-06-10T05:42:25.822Z,20.50
2018-06-10T05:44:54.100Z,20.60
2018-06-10T05:47:22.702Z,20.70
2018-06-10T05:49:50.902Z,20.70
2018-06-10T05:52:19.204Z,20.80
2018-06-10T05:54:47.446Z,20.90
2018-06-10T05:57:21.591Z,20.90
2018-06-10T05:59:49.803Z,21.00
2018-06-10T06:02:18.063Z,21.20
2018-06-10T06:04:46.266Z,21.20
2018-06-10T06:07:14.515Z,21.30
2018-06-10T06:09:42.670Z,21.40
2018-06-10T06:12:10.874Z,21.70
2018-06-10T06:14:39.128Z,21.80
2018-06-10T06:17:07.397Z,21.90
2018-06-10T06:19:35.746Z,21.90
2018-06-10T06:22:04.040Z,22.00
2018-06-10T06:24:32.270Z,22.10
2018-06-10T06:27:00.498Z,22.20
2018-06-10T06:29:28.722Z,22.30
2018-06-10T06:31:57.131Z,22.40
2018-06-10T06:34:25.342Z,22.60
2018-06-10T06:36:53.556Z,22.60
2018-06-10T06:39:21.881Z,22.70
2018-06-10T06:41:50.120Z,22.70
2018-06-10T06:44:18.412Z,22.80
2018-06-10T06:46:46.630Z,22.70
2018-06-10T06:49:14.895Z,22.70
2018-06-10T06:51:43.173Z,22.80
2018-06-10T06:54:11.533Z,22.70
2018-06-10T06:56:39.807Z,23.00
2018-06-10T06:59:08.044Z,23.20
2018-06-10T07:01:36.391Z,23.30
2018-06-10T07:04:04.667Z,23.50
2018-06-10T07:06:32.853Z,23.40
2018-06-10T07:09:01.084Z,23.40
2018-06-10T07:11:29.231Z,23.50
2018-06-10T07:13:57.454Z,23.30
2018-06-10T07:16:25.752Z,23.30
2018-06-10T07:18:54.057Z,23.30
2018-06-10T07:21:22.297Z,23.30
2018-06-10T07:23:50.535Z,23.40
2018-06-10T07:26:18.845Z,23.40
2018-06-10T07:28:47.038Z,23.30
2018-06-10T07:31:15.351Z,23.20
2018-06-10T07:36:11.209Z,23.30
2018-06-10T07:38:39.406Z,23.30
2018-06-10T07:41:07.611Z,23.50
2018-06-10T07:43:35.902Z,23.50
2018-06-10T07:46:04.087Z,23.50
2018-06-10T07:51:00.091Z,23.60
2018-06-10T07:53:28.414Z,23.60
2018-06-10T07:55:56.814Z,23.70
2018-06-10T07:58:24.882Z,23.90
2018-06-10T08:00:52.989Z,23.90
2018-06-10T08:03:21.074Z,23.90
2018-06-10T08:05:49.198Z,24.00
2018-06-10T08:08:17.276Z,24.10
2018-06-10T08:10:45.341Z,23.80
2018-06-10T08:13:13.391Z,24.00
2018-06-10T08:18:09.083Z,23.80
2018-06-10T08:20:37.121Z,23.70
2018-06-10T08:23:05.401Z,23.80
2018-06-10T08:25:33.642Z,23.70
2018-06-10T08:28:01.726Z,24.00
2018-06-10T08:30:29.792Z,24.30
2018-06-10T08:32:57.845Z,24.40
2018-06-10T08:35:25.941Z,24.60
2018-06-10T08:37:53.998Z,24.70
2018-06-10T08:42:49.690Z,25.30
2018-06-10T08:45:17.739Z,25.70
2018-06-10T08:47:45.827Z,26.00
2018-06-10T08:50:13.878Z,26.30
2018-06-10T08:52:41.990Z,26.50
2018-06-10T08:55:10.050Z,26.60
2018-06-10T08:57:38.213Z,26.80
2018-06-10T09:00:06.603Z,27.00
2018-06-10T09:02:34.892Z,27.40
2018-06-10T09:05:03.243Z,27.80
2018-06-10T09:07:31.499Z,27.90
2018-06-10T09:09:59.674Z,28.40
2018-06-10T09:12:28.685Z,28.80
2018-06-10T09:14:56.911Z,28.80
2018-06-10T09:17:25.263Z,29.30
2018-06-10T09:19:53.782Z,29.40
2018-06-10T09:22:22.047Z,29.60
2018-06-10T09:24:50.293Z,29.40
2018-06-10T09:27:18.504Z,29.80
2018-06-10T09:29:46.765Z,30.00
2018-06-10T09:32:14.978Z,30.50
2018-06-10T09:34:43.223Z,30.50
2018-06-10T09:37:11.443Z,30.60
2018-06-10T09:39:39.638Z,30.70
2018-06-10T09:42:08.002Z,30.50
2018-06-10T09:44:36.230Z,30.70
2018-06-10T09:47:04.527Z,30.50
2018-06-10T09:49:32.797Z,30.80
2018-06-10T09:52:01.033Z,30.90
2018-06-10T09:54:29.289Z,31.50
2018-06-10T09:56:57.554Z,31.20
2018-06-10T09:59:25.830Z,31.40
2018-06-10T10:01:54.153Z,32.00
2018-06-10T10:04:22.404Z,31.80
2018-06-10T10:06:50.695Z,31.80
2018-06-10T10:09:18.943Z,31.60
2018-06-10T10:11:51.211Z,31.60
2018-06-10T10:14:19.534Z,31.30
2018-06-10T10:16:47.798Z,32.10
2018-06-10T10:19:16.015Z,32.20
2018-06-10T10:21:44.195Z,32.20
2018-06-10T10:24:12.527Z,32.30
2018-06-10T10:26:40.875Z,32.30
2018-06-10T10:29:09.044Z,32.90
2018-06-10T10:31:37.309Z,32.80
2018-06-10T10:34:05.739Z,33.00
2018-06-10T10:36:34.103Z,33.00
2018-06-10T10:39:02.284Z,33.70
2018-06-10T10:41:30.503Z,33.40
2018-06-10T10:43:58.734Z,33.30
2018-06-10T10:46:26.943Z,33.40
2018-06-10T10:48:56.204Z,33.40
2018-06-10T10:53:52.315Z,33.20
2018-06-10T10:56:20.585Z,33.60
2018-06-10T10:58:48.824Z,33.40
2018-06-10T11:01:17.107Z,33.80
2018-06-10T11:03:45.351Z,34.30
2018-06-10T11:06:13.594Z,33.90
2018-06-10T11:08:41.946Z,33.40
2018-06-10T11:13:37.782Z,34.20
2018-06-10T11:16:06.079Z,34.30
2018-06-10T11:18:34.362Z,33.80
2018-06-10T11:21:02.594Z,33.60
2018-06-10T11:23:30.827Z,34.10
2018-06-10T11:25:59.116Z,34.10
2018-06-10T11:28:36.666Z,34.60
2018-06-10T11:31:05.002Z,34.90
2018-06-10T11:33:33.193Z,35.00
2018-06-10T11:36:01.374Z,35.20
2018-06-10T11:38:29.579Z,35.60
2018-06-10T11:40:57.874Z,35.00
2018-06-10T11:43:26.193Z,34.20
2018-06-10T11:45:54.528Z,34.50
2018-06-10T11:48:23.112Z,35.00
2018-06-10T11:50:51.302Z,35.30
2018-06-10T11:53:19.634Z,35.10
2018-06-10T11:55:47.946Z,34.80
2018-06-10T11:58:16.317Z,35.20
2018-06-10T12:00:44.489Z,35.40
2018-06-10T12:03:16.059Z,34.40
2018-06-10T12:05:44.285Z,34.50
2018-06-10T12:08:12.521Z,34.50
2018-06-10T12:10:40.857Z,34.80
2018-06-10T12:13:09.064Z,34.60
2018-06-10T12:15:37.298Z,35.60
2018-06-10T12:18:05.496Z,35.40
2018-06-10T12:20:33.781Z,35.70
2018-06-10T12:23:02.082Z,35.60
2018-06-10T12:25:30.243Z,35.40
2018-06-10T12:27:58.426Z,35.40
2018-06-10T12:30:26.702Z,35.30
2018-06-10T12:32:54.924Z,35.10
2018-06-10T12:37:50.901Z,35.80
2018-06-10T12:40:19.157Z,35.00
2018-06-10T12:42:47.325Z,35.70
2018-06-10T12:45:15.623Z,36.00
2018-06-10T12:47:50.644Z,36.10
2018-06-10T12:50:18.947Z,36.80
2018-06-10T12:52:47.158Z,36.50
2018-06-10T12:55:15.362Z,36.30
2018-06-10T12:57:43.690Z,36.70
2018-06-10T13:00:11.928Z,36.40
2018-06-10T13:10:57.636Z,36.80
2018-06-10T13:13:25.881Z,37.10
2018-06-10T13:15:54.065Z,37.60
2018-06-10T13:18:22.327Z,37.80
2018-06-10T13:20:50.667Z,36.90
2018-06-10T13:23:19.022Z,36.70
2018-06-10T13:25:47.210Z,36.70
2018-06-10T13:28:24.872Z,36.70
2018-06-10T13:30:53.250Z,35.60
2018-06-10T13:33:21.498Z,35.80
2018-06-10T13:35:49.747Z,36.40
2018-06-10T13:38:18.067Z,36.80
2018-06-10T13:40:46.275Z,36.70
2018-06-10T13:43:14.466Z,35.70
2018-06-10T13:45:42.666Z,36.10
2018-06-10T13:48:10.870Z,36.10
2018-06-10T13:50:39.141Z,35.80
2018-06-10T13:53:07.366Z,35.80
2018-06-10T13:55:36.136Z,36.10
2018-06-10T13:58:04.543Z,35.90
2018-06-10T14:00:33.419Z,35.90
2018-06-10T14:03:01.722Z,35.70
2018-06-10T14:05:30.020Z,34.90
2018-06-10T14:07:58.266Z,34.90
2018-06-10T14:10:26.442Z,34.60
2018-06-10T14:12:54.648Z,34.60
2018-06-10T14:15:22.855Z,34.60
2018-06-10T14:17:51.119Z,35.10
2018-06-10T14:20:19.345Z,34.90
2018-06-10T14:22:47.586Z,35.40
2018-06-10T14:25:15.792Z,35.80
2018-06-10T14:27:44.033Z,36.00
2018-06-10T14:30:12.291Z,35.50
2018-06-10T14:32:40.572Z,35.50
2018-06-10T14:35:08.833Z,35.60
2018-06-10T14:37:37.055Z,36.20
2018-06-10T14:40:05.343Z,35.60
2018-06-10T14:42:33.584Z,36.30
2018-06-10T14:45:01.774Z,36.40
2018-06-10T14:47:29.995Z,36.40
2018-06-10T14:50:13.569Z,36.30
2018-06-10T14:52:57.406Z,36.60
2018-06-10T14:55:25.623Z,36.30
2018-06-10T14:57:53.905Z,36.80
2018-06-10T15:00:22.133Z,36.40
2018-06-10T15:02:50.447Z,35.70
2018-06-10T15:05:35.018Z,35.70
2018-06-10T15:08:03.367Z,36.20
2018-06-10T15:10:31.555Z,36.90
2018-06-10T15:12:59.779Z,36.70
2018-06-10T15:15:28.111Z,36.60
2018-06-10T15:17:56.407Z,35.80
2018-06-10T15:20:25.005Z,35.80
2018-06-10T15:22:53.751Z,36.10
2018-06-10T15:25:22.068Z,36.10
2018-06-10T15:27:50.292Z,36.10
2018-06-10T15:30:18.521Z,35.90
2018-06-10T15:32:46.706Z,36.10
2018-06-10T15:35:14.898Z,35.70
2018-06-10T15:37:43.143Z,36.10
2018-06-10T15:40:11.422Z,36.30
2018-06-10T15:42:40.710Z,36.50
2018-06-10T15:45:08.967Z,36.30
2018-06-10T15:47:37.245Z,36.10
2018-06-10T15:50:05.628Z,36.50
2018-06-10T15:52:33.836Z,36.90
2018-06-10T15:55:02.071Z,37.20
2018-06-10T15:57:37.072Z,36.90
2018-06-10T16:00:05.432Z,37.30
2018-06-10T16:02:33.756Z,36.70
2018-06-10T16:05:01.987Z,36.60
2018-06-10T16:07:30.246Z,36.60
2018-06-10T16:09:58.500Z,36.20
2018-06-10T16:12:26.798Z,36.60
2018-06-10T16:14:55.106Z,36.30
2018-06-10T16:17:23.274Z,36.50
2018-06-10T16:19:51.523Z,36.30
2018-06-10T16:22:19.874Z,36.40
2018-06-10T16:24:48.190Z,36.30
2018-06-10T16:27:16.450Z,36.30
2018-06-10T16:32:12.448Z,35.90
2018-06-10T16:34:40.688Z,35.60
2018-06-10T16:39:36.622Z,34.60
2018-06-10T16:42:04.848Z,34.30
2018-06-10T16:44:33.589Z,34.00
2018-06-10T16:47:02.025Z,33.70
2018-06-10T16:49:30.291Z,33.50
2018-06-10T16:51:58.546Z,33.40
2018-06-10T16:54:26.740Z,33.10
2018-06-10T16:56:55.134Z,33.40
2018-06-10T16:59:23.347Z,33.40
2018-06-10T17:01:56.333Z,33.30
2018-06-10T17:04:24.543Z,33.30
2018-06-10T17:06:52.703Z,33.00
2018-06-10T17:09:20.884Z,32.90
2018-06-10T17:11:49.123Z,32.80
2018-06-10T17:16:45.122Z,31.50
2018-06-10T17:19:13.297Z,31.30
2018-06-10T17:21:41.526Z,31.60
2018-06-10T17:24:09.701Z,31.70
2018-06-10T17:26:37.989Z,31.70
2018-06-10T17:29:06.240Z,31.20
2018-06-10T17:31:34.505Z,30.60
2018-06-10T17:34:02.834Z,30.30
2018-06-10T17:36:30.975Z,30.30
2018-06-10T17:38:59.195Z,30.30
2018-06-10T17:41:27.401Z,30.60
2018-06-10T17:43:55.569Z,30.80
2018-06-10T17:46:23.786Z,30.80
2018-06-10T17:48:51.923Z,30.30
2018-06-10T17:51:20.155Z,29.90
2018-06-10T17:53:48.384Z,29.80
2018-06-10T17:56:16.452Z,29.90
2018-06-10T17:58:44.593Z,29.80
2018-06-10T18:01:12.638Z,30.00
2018-06-10T18:03:40.717Z,29.80
2018-06-10T18:06:08.794Z,30.00
2018-06-10T18:08:36.865Z,30.10
2018-06-10T18:11:04.989Z,30.00
2018-06-10T18:13:33.071Z,29.90
2018-06-10T18:16:01.216Z,29.80
2018-06-10T18:18:29.314Z,29.50
2018-06-10T18:20:57.436Z,29.30
2018-06-10T18:23:25.537Z,29.40
2018-06-10T18:25:53.618Z,29.40
2018-06-10T18:28:21.681Z,29.20
2018-06-10T18:30:49.776Z,29.20
2018-06-10T18:33:17.821Z,29.20
2018-06-10T18:35:45.931Z,29.20
2018-06-10T18:38:13.963Z,29.10
2018-06-10T18:40:42.058Z,28.80
2018-06-10T18:43:10.166Z,28.70
2018-06-10T18:45:38.248Z,28.70
2018-06-10T18:48:06.341Z,28.50
2018-06-10T18:50:34.409Z,28.40
2018-06-10T18:53:02.510Z,28.40
2018-06-10T18:55:30.576Z,28.30
2018-06-10T18:57:58.619Z,28.20
2018-06-10T19:00:26.809Z,28.20
2018-06-10T19:02:54.883Z,28.00
2018-06-10T19:05:22.978Z,28.10
2018-06-10T19:07:51.086Z,27.60
2018-06-10T19:10:19.199Z,27.40
2018-06-10T19:12:47.247Z,27.10
2018-06-10T19:15:15.325Z,27.00
2018-06-10T19:17:43.416Z,27.00
2018-06-10T19:20:11.493Z,26.80
2018-06-10T19:22:39.553Z,26.70
2018-06-10T19:25:08.701Z,26.80
2018-06-10T19:27:43.537Z,26.80
2018-06-10T19:30:11.618Z,26.30
2018-06-10T19:32:39.684Z,26.20
2018-06-10T19:35:07.737Z,25.90
2018-06-10T19:37:35.829Z,25.70
2018-06-10T19:40:03.974Z,25.70
2018-06-10T19:42:32.062Z,25.60
2018-06-10T19:45:00.186Z,25.30
2018-06-10T19:50:14.663Z,24.90
2018-06-10T19:52:42.716Z,24.90
2018-06-10T19:55:10.787Z,24.80
2018-06-10T19:57:42.502Z,24.50
2018-06-10T20:00:10.618Z,24.20
2018-06-10T20:02:38.662Z,24.10
2018-06-10T20:05:06.746Z,24.00
2018-06-10T20:07:34.777Z,23.80
2018-06-10T20:10:02.870Z,23.80
2018-06-10T20:12:30.934Z,23.80
2018-06-10T20:14:58.994Z,23.80
2018-06-10T20:17:27.078Z,23.80
2018-06-10T20:19:55.121Z,23.90
2018-06-10T20:22:23.202Z,23.90
2018-06-10T20:24:51.253Z,23.70
2018-06-10T20:27:19.294Z,23.50
2018-06-10T20:29:47.412Z,23.30
2018-06-10T20:32:15.627Z,23.30
2018-06-10T20:34:43.736Z,23.20
2018-06-10T20:37:11.841Z,23.30
2018-06-10T20:39:39.877Z,23.30
2018-06-10T20:42:07.983Z,23.40
2018-06-10T20:47:03.698Z,23.30
2018-06-10T20:49:31.793Z,23.30
2018-06-10T20:51:59.829Z,23.30
2018-06-10T20:54:27.923Z,23.00
2018-06-10T20:59:49.894Z,22.70
2018-06-10T21:02:17.977Z,22.80
2018-06-10T21:04:46.046Z,22.90
2018-06-10T21:07:14.114Z,22.90
2018-06-10T21:09:42.236Z,23.00
2018-06-10T21:12:10.322Z,22.90
2018-06-10T21:14:38.436Z,22.80
2018-06-10T21:17:06.506Z,22.80
2018-06-10T21:19:34.577Z,22.60
2018-06-10T21:22:02.622Z,22.60
2018-06-10T21:24:30.669Z,22.60
2018-06-10T21:26:58.775Z,22.60
2018-06-10T21:29:26.812Z,22.50
2018-06-10T21:32:04.957Z,22.40
2018-06-10T21:34:33.007Z,22.20
2018-06-10T21:37:01.089Z,22.30
2018-06-10T21:39:29.161Z,22.10
2018-06-10T21:41:59.246Z,22.10
2018-06-10T21:44:27.326Z,22.10
2018-06-10T21:46:55.365Z,22.10
2018-06-10T21:49:23.421Z,22.10
2018-06-10T21:51:51.489Z,22.00
2018-06-10T21:54:23.744Z,22.00
2018-06-10T21:56:51.806Z,21.90
2018-06-10T21:59:19.844Z,21.80
2018-06-10T22:01:47.969Z,21.90
2018-06-10T22:04:16.003Z,21.90
2018-06-10T22:06:44.074Z,21.90
2018-06-10T22:09:12.144Z,22.00
2018-06-10T22:11:40.217Z,22.00
2018-06-10T22:14:08.358Z,21.90
2018-06-10T22:16:36.411Z,22.00
2018-06-10T22:19:04.541Z,22.10
2018-06-10T22:21:40.318Z,22.10
2018-06-10T22:24:08.404Z,21.90
2018-06-10T22:26:36.473Z,21.90
2018-06-10T22:29:04.533Z,21.90
2018-06-10T22:31:32.621Z,21.90
2018-06-10T22:34:00.734Z,21.90
2018-06-10T22:36:29.668Z,22.00
2018-06-10T22:38:57.740Z,22.10
2018-06-10T22:41:25.773Z,22.00
2018-06-10T22:43:53.868Z,22.00
2018-06-10T22:46:21.905Z,22.00
2018-06-10T22:48:49.994Z,21.90
2018-06-10T22:51:18.069Z,21.90
2018-06-10T22:54:16.954Z,21.90
2018-06-10T22:56:45.189Z,21.90
2018-06-10T22:59:13.249Z,21.70
2018-06-10T23:01:41.344Z,21.70
2018-06-10T23:04:09.372Z,21.70
2018-06-10T23:09:06.501Z,21.60
2018-06-10T23:11:34.549Z,21.60
2018-06-10T23:14:02.645Z,21.60
2018-06-10T23:16:30.667Z,21.70
2018-06-10T23:18:58.756Z,21.80
2018-06-10T23:21:26.979Z,21.60
2018-06-10T23:23:55.241Z,21.50
2018-06-10T23:26:23.490Z,21.50
2018-06-10T23:28:51.866Z,21.50
2018-06-10T23:31:20.157Z,21.60
2018-06-10T23:33:48.416Z,21.60
2018-06-10T23:36:16.604Z,21.70
2018-06-10T23:38:44.915Z,21.70
2018-06-10T23:41:13.111Z,21.70
2018-06-10T23:43:41.366Z,21.70
2018-06-10T23:46:09.602Z,21.70
2018-06-10T23:48:37.978Z,21.60
2018-06-10T23:51:06.215Z,21.50
2018-06-10T23:53:34.465Z,21.60
2018-06-10T23:56:02.643Z,21.60
2018-06-10T23:58:30.926Z,21.70
